createdAt,value
2023-05-13T00:02:20.334Z,101282.91
2023-05-13T00:05:25.676Z,101283.97
2023-05-13T00:08:31.134Z,101290.72
2023-05-13T00:11:36.798Z,101290.34
2023-05-13T00:14:42.530Z,101290.38
2023-05-13T00:17:47.836Z,101290.72
2023-05-13T00:20:53.398Z,101284.00
2023-05-13T00:23:59.441Z,101281.31
2023-05-13T00:27:04.986Z,101289.34
2023-05-13T00:30:11.274Z,101285.84
2023-05-13T00:33:16.756Z,101287.84
2023-05-13T00:36:22.396Z,101288.44
2023-05-13T00:39:29.378Z,101282.03
2023-05-13T00:42:34.894Z,101290.97
2023-05-13T00:45:41.379Z,101286.81
2023-05-13T00:48:47.408Z,101290.53
2023-05-13T00:51:55.498Z,101293.09
2023-05-13T00:55:01.519Z,101278.03
2023-05-13T00:58:06.951Z,101279.44
2023-05-13T01:01:32.321Z,101282.25
2023-05-13T01:04:45.682Z,101292.97
2023-05-13T01:08:25.209Z,101288.91
2023-05-13T01:11:42.115Z,101295.97
2023-05-13T01:14:55.819Z,101289.00
2023-05-13T01:18:11.505Z,101292.03
2023-05-13T01:21:17.408Z,101291.56
2023-05-13T01:24:23.425Z,101288.97
2023-05-13T01:27:29.382Z,101289.34
2023-05-13T01:30:36.922Z,101292.16
2023-05-13T01:33:44.282Z,101284.34
2023-05-13T01:36:51.392Z,101287.13
2023-05-13T01:39:59.300Z,101290.88
2023-05-13T01:43:05.210Z,101284.09
2023-05-13T01:46:14.263Z,101283.41
2023-05-13T01:49:20.064Z,101284.59
2023-05-13T01:52:25.572Z,101283.19
2023-05-13T01:55:31.765Z,101279.09
2023-05-13T01:58:40.459Z,101278.03
2023-05-13T02:01:46.345Z,101278.19
2023-05-13T02:04:51.991Z,101283.66
2023-05-13T02:07:57.746Z,101275.97
2023-05-13T02:11:03.852Z,101274.69
2023-05-13T02:14:09.259Z,101273.28
2023-05-13T02:17:15.212Z,101269.94
2023-05-13T02:20:21.707Z,101264.81
2023-05-13T02:23:27.726Z,101265.41
2023-05-13T02:26:34.346Z,101276.34
2023-05-13T02:29:40.211Z,101272.97
2023-05-13T02:32:47.764Z,101264.94
2023-05-13T02:35:53.660Z,101268.78
2023-05-13T02:38:59.362Z,101256.88
2023-05-13T02:42:05.689Z,101258.66
2023-05-13T02:45:12.411Z,101260.72
2023-05-13T02:48:21.003Z,101252.13
2023-05-13T02:51:26.673Z,101255.25
2023-05-13T02:54:32.648Z,101253.28
2023-05-13T02:57:38.356Z,101253.06
2023-05-13T03:00:44.219Z,101248.88
2023-05-13T03:03:50.720Z,101258.72
2023-05-13T03:06:56.033Z,101251.53
2023-05-13T03:10:01.696Z,101257.09
2023-05-13T03:13:07.406Z,101255.84
2023-05-13T03:16:13.544Z,101262.81
2023-05-13T03:19:19.101Z,101260.97
2023-05-13T03:22:24.395Z,101267.00
2023-05-13T03:25:30.261Z,101265.28
2023-05-13T03:28:37.751Z,101269.44
2023-05-13T03:31:43.724Z,101266.06
2023-05-13T03:34:49.331Z,101279.53
2023-05-13T03:37:55.743Z,101271.19
2023-05-13T03:41:01.462Z,101284.94
2023-05-13T03:44:08.089Z,101293.84
2023-05-13T03:47:13.712Z,101292.47
2023-05-13T03:50:19.647Z,101295.72
2023-05-13T03:53:25.275Z,101293.50
2023-05-13T03:56:32.966Z,101292.00
2023-05-13T03:59:40.231Z,101286.53
2023-05-13T04:02:46.373Z,101289.81
2023-05-13T04:05:52.592Z,101301.88
2023-05-13T04:08:58.488Z,101307.81
2023-05-13T04:12:04.260Z,101314.22
2023-05-13T04:15:09.952Z,101309.72
2023-05-13T04:18:15.284Z,101312.94
2023-05-13T04:21:20.974Z,101317.13
2023-05-13T04:24:27.029Z,101324.72
2023-05-13T04:27:32.363Z,101321.66
2023-05-13T04:30:45.630Z,101342.47
2023-05-13T04:33:51.316Z,101337.13
2023-05-13T04:36:57.094Z,101349.59
2023-05-13T04:40:04.057Z,101353.91
2023-05-13T04:43:09.974Z,101357.88
2023-05-13T04:46:24.487Z,101359.19
2023-05-13T04:49:30.775Z,101359.28
2023-05-13T04:52:37.849Z,101365.81
2023-05-13T04:55:43.657Z,101372.22
2023-05-13T04:58:49.246Z,101368.94
2023-05-13T05:01:55.241Z,101380.59
2023-05-13T05:05:00.859Z,101391.41
2023-05-13T05:08:06.820Z,101383.13
2023-05-13T05:11:12.777Z,101383.63
2023-05-13T05:14:18.297Z,101394.94
2023-05-13T05:17:24.156Z,101394.56
2023-05-13T05:20:29.594Z,101395.16
2023-05-13T05:23:37.377Z,101392.94
2023-05-13T05:26:42.910Z,101397.03
2023-05-13T05:29:49.140Z,101400.03
2023-05-13T05:32:54.552Z,101402.47
2023-05-13T05:36:00.661Z,101401.75
2023-05-13T05:39:06.502Z,101400.63
2023-05-13T05:42:15.595Z,101398.25
2023-05-13T05:45:21.325Z,101404.53
2023-05-13T05:48:27.036Z,101405.81
2023-05-13T05:51:33.286Z,101407.06
2023-05-13T05:54:40.856Z,101413.38
2023-05-13T05:57:46.130Z,101415.91
2023-05-13T06:00:52.024Z,101416.78
2023-05-13T06:03:57.089Z,101415.47
2023-05-13T06:07:02.820Z,101419.91
2023-05-13T06:10:09.025Z,101420.56
2023-05-13T06:13:15.028Z,101421.81
2023-05-13T06:16:20.952Z,101419.38
2023-05-13T06:19:26.963Z,101419.50
2023-05-13T06:22:32.982Z,101422.16
2023-05-13T06:25:39.006Z,101415.66
2023-05-13T06:28:45.521Z,101416.66
2023-05-13T06:31:51.186Z,101418.13
2023-05-13T06:34:56.821Z,101418.13
2023-05-13T06:38:02.373Z,101418.84
2023-05-13T06:41:08.050Z,101419.75
2023-05-13T06:44:16.280Z,101427.72
2023-05-13T06:47:24.415Z,101425.13
2023-05-13T06:50:30.157Z,101422.69
2023-05-13T06:53:35.943Z,101423.97
2023-05-13T06:56:41.753Z,101423.97
2023-05-13T06:59:47.646Z,101421.59
2023-05-13T07:02:52.931Z,101415.34
2023-05-13T07:05:58.326Z,101418.19
2023-05-13T07:09:08.204Z,101409.56
2023-05-13T07:12:14.681Z,101420.38
2023-05-13T07:15:20.646Z,101418.75
2023-05-13T07:18:26.520Z,101417.53
2023-05-13T07:21:32.423Z,101418.66
2023-05-13T07:24:37.748Z,101418.22
2023-05-13T07:27:43.125Z,101418.63
2023-05-13T07:30:48.773Z,101427.09
2023-05-13T07:33:54.055Z,101436.63
2023-05-13T07:36:59.289Z,101436.28
2023-05-13T07:40:06.965Z,101432.03
2023-05-13T07:43:14.209Z,101426.41
2023-05-13T07:46:19.734Z,101427.69
2023-05-13T07:49:25.106Z,101432.19
2023-05-13T07:52:30.560Z,101423.75
2023-05-13T07:55:35.810Z,101416.94
2023-05-13T07:58:41.178Z,101425.91
2023-05-13T08:01:46.801Z,101425.06
2023-05-13T08:04:52.215Z,101420.88
2023-05-13T08:07:58.010Z,101419.16
2023-05-13T08:11:03.544Z,101413.72
2023-05-13T08:14:08.648Z,101416.97
2023-05-13T08:17:14.250Z,101417.47
2023-05-13T08:20:20.277Z,101413.88
2023-05-13T08:23:43.539Z,101420.22
2023-05-13T08:26:51.316Z,101417.28
2023-05-13T08:29:56.445Z,101406.75
2023-05-13T08:33:02.117Z,101403.25
2023-05-13T08:36:08.566Z,101402.44
2023-05-13T08:42:40.193Z,101406.59
2023-05-13T08:45:48.357Z,101402.63
2023-05-13T08:48:55.359Z,101400.97
2023-05-13T08:52:01.007Z,101396.94
2023-05-13T08:55:09.091Z,101395.91
2023-05-13T08:58:14.226Z,101393.69
2023-05-13T09:01:19.633Z,101397.28
2023-05-13T09:04:26.253Z,101395.63
2023-05-13T09:07:31.990Z,101396.28
2023-05-13T09:10:37.764Z,101399.56
2023-05-13T09:13:45.391Z,101397.06
2023-05-13T09:16:50.829Z,101399.88
2023-05-13T09:19:57.005Z,101392.50
2023-05-13T09:23:10.800Z,101396.59
2023-05-13T09:26:30.035Z,101396.06
2023-05-13T09:29:35.230Z,101399.75
2023-05-13T09:32:42.938Z,101385.34
2023-05-13T09:35:53.698Z,101394.44
2023-05-13T09:39:00.315Z,101394.75
2023-05-13T09:42:06.635Z,101410.69
2023-05-13T09:45:14.222Z,101403.66
2023-05-13T09:48:23.940Z,101398.94
2023-05-13T09:51:31.306Z,101395.06
2023-05-13T09:54:36.873Z,101393.91
2023-05-13T09:57:42.556Z,101393.50
2023-05-13T10:00:48.795Z,101391.34
2023-05-13T10:03:57.065Z,101389.97
2023-05-13T10:07:05.323Z,101387.81
2023-05-13T10:10:11.035Z,101389.53
2023-05-13T10:13:20.212Z,101386.59
2023-05-13T10:16:26.205Z,101380.13
2023-05-13T10:19:32.492Z,101381.88
2023-05-13T10:22:39.455Z,101382.78
2023-05-13T10:25:46.536Z,101375.88
2023-05-13T10:28:54.095Z,101373.19
2023-05-13T10:32:00.704Z,101372.22
2023-05-13T10:35:13.760Z,101365.25
2023-05-13T10:38:48.413Z,101371.13
2023-05-13T10:42:44.516Z,101364.88
2023-05-13T10:46:01.468Z,101358.31
2023-05-13T10:49:16.438Z,101355.88
2023-05-13T10:52:22.375Z,101363.69
2023-05-13T10:55:28.413Z,101363.72
2023-05-13T10:58:38.532Z,101365.63
2023-05-13T11:01:46.129Z,101352.31
2023-05-13T11:05:00.530Z,101362.63
2023-05-13T11:08:05.916Z,101346.44
2023-05-13T11:11:22.981Z,101342.94
2023-05-13T11:14:31.284Z,101333.75
2023-05-13T11:17:37.808Z,101332.06
2023-05-13T11:20:52.481Z,101325.59
2023-05-13T11:24:05.836Z,101321.06
2023-05-13T11:27:21.566Z,101316.47
2023-05-13T11:30:28.024Z,101316.13
2023-05-13T11:34:11.955Z,101317.19
2023-05-13T11:37:18.287Z,101316.53
2023-05-13T11:40:26.004Z,101308.97
2023-05-13T11:43:34.106Z,101320.16
2023-05-13T11:46:53.396Z,101313.34
2023-05-13T11:49:59.378Z,101320.09
2023-05-13T11:53:05.340Z,101317.63
2023-05-13T11:56:11.845Z,101324.50
2023-05-13T11:59:17.440Z,101311.50
2023-05-13T12:02:35.615Z,101302.06
2023-05-13T12:05:41.621Z,101305.97
2023-05-13T12:08:47.467Z,101295.72
2023-05-13T12:11:54.067Z,101287.84
2023-05-13T12:15:00.915Z,101288.81
2023-05-13T12:18:07.051Z,101288.00
2023-05-13T12:21:17.763Z,101285.59
2023-05-13T12:24:23.146Z,101280.59
2023-05-13T12:27:29.027Z,101283.06
2023-05-13T12:30:35.580Z,101278.28
2023-05-13T12:33:43.047Z,101282.31
2023-05-13T12:36:48.383Z,101284.69
2023-05-13T12:40:10.596Z,101294.22
2023-05-13T12:43:20.473Z,101300.72
2023-05-13T12:46:26.292Z,101297.78
2023-05-13T12:49:32.036Z,101291.69
2023-05-13T12:52:37.649Z,101280.19
2023-05-13T12:55:43.910Z,101286.16
2023-05-13T12:58:51.030Z,101276.69
2023-05-13T13:01:56.481Z,101275.59
2023-05-13T13:05:01.929Z,101275.59
2023-05-13T13:08:07.188Z,101277.31
2023-05-13T13:11:18.886Z,101275.13
2023-05-13T13:14:26.395Z,101280.63
2023-05-13T13:17:31.708Z,101271.47
2023-05-13T13:20:39.007Z,101280.16
2023-05-13T13:23:44.629Z,101276.97
2023-05-13T13:26:50.467Z,101270.47
2023-05-13T13:29:56.121Z,101271.81
2023-05-13T13:33:02.087Z,101253.78
2023-05-13T13:36:07.975Z,101261.94
2023-05-13T13:39:13.291Z,101259.88
2023-05-13T13:42:18.563Z,101254.69
2023-05-13T13:45:24.463Z,101249.09
2023-05-13T13:48:29.328Z,101251.56
2023-05-13T13:51:34.501Z,101247.47
2023-05-13T13:54:39.833Z,101241.56
2023-05-13T13:57:46.055Z,101238.00
2023-05-13T14:00:52.881Z,101248.28
2023-05-13T14:04:16.207Z,101233.19
2023-05-13T14:07:21.518Z,101226.97
2023-05-13T14:10:26.897Z,101229.44
2023-05-13T14:13:32.432Z,101229.91
2023-05-13T14:16:37.470Z,101237.78
2023-05-13T14:19:42.755Z,101229.41
2023-05-13T14:22:48.470Z,101223.91
2023-05-13T14:25:54.186Z,101231.22
2023-05-13T14:28:59.345Z,101224.28
2023-05-13T14:32:04.855Z,101229.94
2023-05-13T14:35:10.465Z,101233.72
2023-05-13T14:38:16.075Z,101229.53
2023-05-13T14:41:21.887Z,101232.53
2023-05-13T14:44:26.996Z,101234.84
2023-05-13T14:47:32.613Z,101243.84
2023-05-13T14:50:39.414Z,101241.97
2023-05-13T14:53:47.081Z,101243.94
2023-05-13T14:56:53.372Z,101250.47
2023-05-13T15:00:00.047Z,101255.31
2023-05-13T15:03:06.552Z,101264.78
2023-05-13T15:06:12.092Z,101267.84
2023-05-13T15:09:19.408Z,101263.84
2023-05-13T15:12:24.932Z,101257.28
2023-05-13T15:15:30.939Z,101262.31
2023-05-13T15:18:36.556Z,101262.00
2023-05-13T15:21:41.996Z,101267.94
2023-05-13T15:24:47.868Z,101272.72
2023-05-13T15:27:53.372Z,101270.72
2023-05-13T15:30:59.173Z,101278.97
2023-05-13T15:34:04.969Z,101288.63
2023-05-13T15:37:10.794Z,101292.72
2023-05-13T15:40:16.467Z,101302.34
2023-05-13T15:43:21.993Z,101286.06
2023-05-13T15:46:27.368Z,101289.25
2023-05-13T15:49:36.054Z,101296.72
2023-05-13T15:52:41.538Z,101308.09
2023-05-13T15:55:47.230Z,101310.44
2023-05-13T15:58:53.207Z,101301.56
2023-05-13T16:01:58.567Z,101294.94
2023-05-13T16:05:04.191Z,101299.88
2023-05-13T16:08:09.731Z,101293.03
2023-05-13T16:11:15.350Z,101290.25
2023-05-13T16:14:20.599Z,101295.38
2023-05-13T16:17:26.341Z,101290.72
2023-05-13T16:20:31.612Z,101286.53
2023-05-13T16:23:37.110Z,101275.88
2023-05-13T16:26:42.363Z,101274.06
2023-05-13T16:29:47.854Z,101268.69
2023-05-13T16:32:54.692Z,101268.31
2023-05-13T16:36:00.164Z,101270.41
2023-05-13T16:39:05.819Z,101265.41
2023-05-13T16:42:11.581Z,101260.69
2023-05-13T16:45:16.940Z,101257.75
2023-05-13T16:48:22.581Z,101253.75
2023-05-13T16:51:28.358Z,101252.72
2023-05-13T16:54:34.705Z,101250.53
2023-05-13T16:57:40.241Z,101240.53
2023-05-13T17:00:45.781Z,101241.31
2023-05-13T17:03:51.273Z,101226.31
2023-05-13T17:06:58.902Z,101221.69
2023-05-13T17:10:04.945Z,101219.31
2023-05-13T17:13:10.878Z,101225.34
2023-05-13T17:16:16.672Z,101217.03
2023-05-13T17:19:22.110Z,101226.47
2023-05-13T17:22:28.072Z,101218.13
2023-05-13T17:25:33.693Z,101228.09
2023-05-13T17:28:40.572Z,101227.53
2023-05-13T17:31:46.021Z,101223.22
2023-05-13T17:34:51.591Z,101227.19
2023-05-13T17:37:57.104Z,101226.06
2023-05-13T17:41:02.312Z,101231.25
2023-05-13T17:44:07.725Z,101235.41
2023-05-13T17:47:13.296Z,101232.47
2023-05-13T17:50:19.288Z,101246.19
2023-05-13T17:53:25.168Z,101234.81
2023-05-13T17:56:31.446Z,101242.38
2023-05-13T17:59:37.748Z,101246.34
2023-05-13T18:02:43.397Z,101256.00
2023-05-13T18:05:49.312Z,101251.69
2023-05-13T18:08:54.627Z,101259.44
2023-05-13T18:12:00.079Z,101266.19
2023-05-13T18:15:06.837Z,101270.69
2023-05-13T18:18:12.167Z,101277.31
2023-05-13T18:21:18.019Z,101270.56
2023-05-13T18:24:23.566Z,101268.75
2023-05-13T18:27:28.831Z,101273.00
2023-05-13T18:30:34.433Z,101278.88
2023-05-13T18:33:39.674Z,101283.41
2023-05-13T18:36:46.142Z,101284.66
2023-05-13T18:39:51.947Z,101277.44
2023-05-13T18:42:57.666Z,101282.56
2023-05-13T18:46:03.209Z,101293.72
2023-05-13T18:49:08.788Z,101290.50
2023-05-13T18:52:14.328Z,101288.88
2023-05-13T18:55:20.244Z,101296.88
2023-05-13T18:58:27.377Z,101306.28
2023-05-13T19:01:33.193Z,101312.81
2023-05-13T19:04:38.684Z,101304.16
2023-05-13T19:07:44.753Z,101309.41
2023-05-13T19:10:50.241Z,101318.44
2023-05-13T19:13:55.905Z,101336.44
2023-05-13T19:17:01.916Z,101338.00
2023-05-13T19:20:09.044Z,101328.31
2023-05-13T19:23:14.852Z,101333.13
2023-05-13T19:26:20.153Z,101326.31
2023-05-13T19:29:26.312Z,101334.91
2023-05-13T19:32:31.985Z,101335.97
2023-05-13T19:35:37.645Z,101338.16
2023-05-13T19:38:43.329Z,101346.44
2023-05-13T19:41:48.985Z,101349.00
2023-05-13T19:44:54.148Z,101360.81
2023-05-13T19:47:59.621Z,101351.69
2023-05-13T19:51:05.268Z,101362.09
2023-05-13T19:54:12.251Z,101371.03
2023-05-13T19:57:17.637Z,101368.59
2023-05-13T20:00:24.555Z,101356.31
2023-05-13T20:03:31.085Z,101370.72
2023-05-13T20:06:37.064Z,101359.91
2023-05-13T20:09:42.348Z,101369.97
2023-05-13T20:12:47.873Z,101370.38
2023-05-13T20:15:53.174Z,101373.47
2023-05-13T20:18:58.427Z,101359.72
2023-05-13T20:22:04.411Z,101358.81
2023-05-13T20:25:10.413Z,101360.06
2023-05-13T20:28:16.000Z,101357.59
2023-05-13T20:31:21.785Z,101354.03
2023-05-13T20:34:27.216Z,101350.78
2023-05-13T20:37:32.946Z,101357.47
2023-05-13T20:40:38.932Z,101356.41
2023-05-13T20:43:44.396Z,101354.03
2023-05-13T20:46:50.367Z,101355.19
2023-05-13T20:49:55.855Z,101343.63
2023-05-13T20:53:01.669Z,101350.22
2023-05-13T20:56:07.214Z,101343.72
2023-05-13T20:59:12.786Z,101343.00
2023-05-13T21:02:18.824Z,101342.56
2023-05-13T21:05:24.692Z,101340.88
2023-05-13T21:08:30.458Z,101338.75
2023-05-13T21:11:36.741Z,101336.78
2023-05-13T21:14:42.077Z,101334.94
2023-05-13T21:17:48.205Z,101330.47
2023-05-13T21:20:53.374Z,101322.41
2023-05-13T21:23:58.693Z,101321.19
2023-05-13T21:27:03.838Z,101317.50
2023-05-13T21:30:10.422Z,101326.41
2023-05-13T21:33:17.204Z,101324.94
2023-05-13T21:36:23.018Z,101320.19
2023-05-13T21:39:28.715Z,101314.53
2023-05-13T21:42:34.563Z,101314.63
2023-05-13T21:45:40.421Z,101304.44
2023-05-13T21:48:47.025Z,101309.63
2023-05-13T21:51:52.866Z,101311.25
2023-05-13T21:54:58.420Z,101304.09
2023-05-13T21:58:03.746Z,101304.69
2023-05-13T22:01:09.762Z,101300.47
2023-05-13T22:04:15.292Z,101299.22
2023-05-13T22:07:21.178Z,101293.38
2023-05-13T22:10:26.821Z,101298.66
2023-05-13T22:13:31.927Z,101288.50
2023-05-13T22:16:37.415Z,101291.75
2023-05-13T22:19:42.893Z,101285.25
2023-05-13T22:22:48.030Z,101280.94
2023-05-13T22:25:53.811Z,101276.13
2023-05-13T22:28:59.243Z,101278.44
2023-05-13T22:32:04.825Z,101271.59
2023-05-13T22:35:10.825Z,101268.84
2023-05-13T22:38:16.118Z,101268.59
2023-05-13T22:41:23.914Z,101263.56
2023-05-13T22:44:29.246Z,101263.41
2023-05-13T22:47:37.304Z,101254.25
2023-05-13T22:50:42.607Z,101253.00
2023-05-13T22:53:47.923Z,101243.91
2023-05-13T22:56:53.186Z,101241.31
2023-05-13T22:59:58.730Z,101240.03
2023-05-13T23:03:04.195Z,101231.50
2023-05-13T23:06:11.460Z,101232.84
2023-05-13T23:09:17.170Z,101226.50
2023-05-13T23:12:22.827Z,101223.47
2023-05-13T23:15:28.284Z,101216.47
2023-05-13T23:18:34.519Z,101205.75
2023-05-13T23:21:39.770Z,101206.69
2023-05-13T23:24:45.460Z,101199.81
2023-05-13T23:27:51.523Z,101193.97
2023-05-13T23:30:57.096Z,101198.38
2023-05-13T23:34:03.011Z,101193.41
2023-05-13T23:37:08.331Z,101184.31
2023-05-13T23:40:14.061Z,101186.34
2023-05-13T23:43:18.991Z,101186.09
2023-05-13T23:46:24.333Z,101179.31
2023-05-13T23:49:29.627Z,101179.59
2023-05-13T23:52:35.058Z,101175.84
2023-05-13T23:55:40.809Z,101165.88
2023-05-13T23:58:46.138Z,101167.75
